Time;durP1;ratioP1;P1;durP2;ratioP2;P2;SDS_P1;SDS_P2;PMS_P1;PMS_P2;Temp;Humidity;BMP_temperature;BMP_pressure;BME280_temperature;BME280_humidity;BME280_pressure;Samples;Min_cycle;Max_cycle;Signal;HPM_P1;HPM_P2
2022/06/16 00:00:32;;;;;;;14.68;6.88;;;;;;;16.76;84.91;95304.13;5073553;28;20286;-78
2022/06/16 00:02:58;;;;;;;12.05;6.80;;;;;;;16.78;84.12;95304.69;5074586;28;20220;-78
2022/06/16 00:05:27;;;;;;;11.45;6.70;;;;;;;16.66;84.02;95280.00;5074759;28;20619;-78
2022/06/16 00:07:53;;;;;;;8.38;5.93;;;;;;;16.76;84.24;95295.34;5074727;28;20291;-78
2022/06/16 00:10:20;;;;;;;13.70;6.28;;;;;;;16.76;84.30;95301.47;5074549;28;20709;-78
2022/06/16 00:12:45;;;;;;;8.68;5.85;;;;;;;16.73;84.37;95303.78;5074834;28;20216;-78
2022/06/16 00:15:14;;;;;;;13.02;6.22;;;;;;;16.71;84.63;95296.03;5074763;28;20174;-78
2022/06/16 00:17:39;;;;;;;14.52;6.22;;;;;;;16.72;84.53;95302.16;5074881;28;20563;-78
2022/06/16 00:20:07;;;;;;;13.68;6.45;;;;;;;16.65;84.83;95296.19;5074746;28;20190;-78
2022/06/16 00:22:33;;;;;;;9.40;5.45;;;;;;;16.62;84.88;95305.44;5074723;28;20182;-78
2022/06/16 00:24:59;;;;;;;11.73;6.38;;;;;;;16.64;84.75;95294.56;5074229;28;20712;-78
2022/06/16 00:27:24;;;;;;;8.60;5.95;;;;;;;16.58;84.45;95291.00;5056823;28;20179;-78
2022/06/16 00:29:50;;;;;;;13.10;6.10;;;;;;;16.59;84.70;95297.94;5074416;28;20197;-78
2022/06/16 00:32:15;;;;;;;9.35;5.88;;;;;;;16.38;84.94;95270.16;5074350;28;20250;-78
2022/06/16 00:34:41;;;;;;;10.75;6.13;;;;;;;16.58;84.96;95296.31;5074551;28;20170;-78
2022/06/16 00:37:06;;;;;;;9.50;6.00;;;;;;;16.56;84.96;95295.72;5074558;28;20236;-78
2022/06/16 00:39:32;;;;;;;13.48;6.03;;;;;;;16.51;85.00;95295.66;5074279;28;20228;-78
2022/06/16 00:42:16;;;;;;;13.50;7.13;;;;;;;16.48;85.07;95296.91;5074510;28;20257;-78
2022/06/16 00:44:45;;;;;;;36.10;19.33;;;;;;;16.42;84.93;95281.13;5066151;28;20194;-78
2022/06/16 00:47:11;;;;;;;18.50;9.88;;;;;;;16.45;85.13;95292.06;5074049;28;20174;-78
2022/06/16 00:49:40;;;;;;;12.00;6.47;;;;;;;16.37;85.56;95291.63;5074336;28;20178;-77
2022/06/16 00:52:13;;;;;;;16.52;10.25;;;;;;;16.21;85.76;95261.31;5074026;28;20183;-78
2022/06/16 00:54:46;;;;;;;18.88;8.05;;;;;;;16.17;85.69;95257.53;5073958;28;20209;-78
2022/06/16 00:57:18;;;;;;;11.43;6.47;;;;;;;16.38;85.45;95288.75;5073764;28;20171;-78
2022/06/16 00:59:44;;;;;;;10.85;7.85;;;;;;;16.20;85.47;95265.81;5073711;28;20224;-78
2022/06/16 01:02:10;;;;;;;14.25;8.45;;;;;;;16.36;85.70;95285.50;5073741;28;20633;-78
2022/06/16 01:04:51;;;;;;;9.98;6.82;;;;;;;16.36;85.51;95290.81;5073842;28;20255;-78
2022/06/16 01:07:24;;;;;;;9.48;7.28;;;;;;;16.30;85.46;95281.16;5055790;28;20621;-78
2022/06/16 01:09:52;;;;;;;9.63;6.72;;;;;;;16.34;85.34;95289.47;5073615;28;20175;-78
2022/06/16 01:15:53;;;;;;;20.63;8.02;;;;;;;16.22;85.54;95274.34;5048100;28;20186;-78
2022/06/16 01:18:46;;;;;;;11.50;7.22;;;;;;;16.26;85.56;95280.00;5053709;28;20183;-78
2022/06/16 01:21:39;;;;;;;20.10;11.50;;;;;;;16.28;85.35;95282.41;5053323;28;20656;-78
2022/06/16 01:24:19;;;;;;;44.45;26.25;;;;;;;16.21;85.71;95279.91;5030363;28;20187;-78
2022/06/16 01:26:59;;;;;;;21.00;10.07;;;;;;;16.21;85.78;95278.06;5053264;28;20179;-78
2022/06/16 01:30:03;;;;;;;13.85;8.18;;;;;;;16.18;85.70;95278.50;5048120;28;20669;-78
2022/06/16 01:32:53;;;;;;;16.00;10.10;;;;;;;16.15;86.25;95281.66;5046527;28;20178;-78
2022/06/16 01:35:33;;;;;;;16.77;8.82;;;;;;;16.16;85.96;95275.31;5053285;28;20168;-78
2022/06/16 01:38:28;;;;;;;15.77;8.38;;;;;;;16.16;85.76;95277.97;5053494;28;20257;-79
2022/06/16 01:41:12;;;;;;;10.05;6.05;;;;;;;16.12;85.74;95265.38;5053038;28;20186;-78
2022/06/16 01:43:44;;;;;;;12.68;7.63;;;;;;;16.11;86.11;95274.38;5052822;28;20179;-78
2022/06/16 01:46:26;;;;;;;9.43;7.40;;;;;;;15.77;86.35;95221.09;5053162;28;20253;-78
2022/06/16 01:49:00;;;;;;;15.80;7.03;;;;;;;15.90;86.60;95237.84;5052824;28;20163;-78
2022/06/16 01:51:38;;;;;;;10.43;6.75;;;;;;;16.04;86.72;95263.88;5052761;28;20188;-79
2022/06/16 01:54:15;;;;;;;8.80;6.20;;;;;;;16.02;86.11;95263.31;5052959;28;20159;-79
2022/06/16 01:56:55;;;;;;;28.75;16.40;;;;;;;15.98;86.37;95267.50;5053166;28;20179;-78
2022/06/16 01:59:26;;;;;;;40.47;23.38;;;;;;;15.85;86.38;95239.31;5053073;28;20561;-78
2022/06/16 02:02:00;;;;;;;15.32;11.02;;;;;;;16.02;85.79;95263.31;5052626;28;20182;-78
2022/06/16 02:04:36;;;;;;;13.98;9.57;;;;;;;15.96;86.06;95263.44;5052602;28;20281;-78
2022/06/16 02:07:08;;;;;;;19.40;9.57;;;;;;;15.94;86.26;95260.22;5052831;28;20175;-79
2022/06/16 02:09:44;;;;;;;12.30;6.70;;;;;;;15.90;86.31;95261.72;5035160;28;20674;-78
2022/06/16 02:15:47;;;;;;;11.23;6.28;;;;;;;15.88;86.41;95266.47;5065685;28;20216;-79
2022/06/16 02:18:17;;;;;;;6.07;5.07;;;;;;;15.74;86.39;95261.38;5062385;28;20269;-78
2022/06/16 02:21:26;;;;;;;10.40;5.75;;;;;;;15.72;87.09;95262.69;5073194;28;20280;-78
2022/06/16 02:23:52;;;;;;;15.88;5.82;;;;;;;15.72;86.85;95270.63;5060438;28;20267;-78
2022/06/16 02:26:17;;;;;;;8.05;4.93;;;;;;;15.69;86.68;95265.78;5072844;28;20590;-78
2022/06/16 02:28:51;;;;;;;7.45;5.28;;;;;;;15.61;86.41;95256.31;5072525;28;20182;-78
2022/06/16 02:31:43;;;;;;;8.10;5.60;;;;;;;15.66;86.62;95271.53;5072630;28;20185;-78
2022/06/16 02:34:14;;;;;;;7.80;5.82;;;;;;;15.63;86.78;95272.03;5072557;28;20173;-78
2022/06/16 02:37:01;;;;;;;12.15;7.50;;;;;;;15.58;87.04;95270.06;5071365;28;20995;-78
2022/06/16 02:39:32;;;;;;;16.42;6.13;;;;;;;15.59;86.56;95278.81;5072620;28;20166;-78
2022/06/16 02:42:07;;;;;;;33.08;19.00;;;;;;;15.55;87.13;95280.34;5072254;28;20178;-78
2022/06/16 02:44:46;;;;;;;13.30;7.88;;;;;;;15.41;87.00;95266.44;5072285;28;20722;-78
2022/06/16 02:47:45;;;;;;;9.20;6.22;;;;;;;15.51;87.35;95285.25;5072611;28;20182;-78
2022/06/16 02:50:23;;;;;;;28.77;14.80;;;;;;;15.38;87.10;95275.69;5072492;28;20254;-78
2022/06/16 02:53:00;;;;;;;19.45;13.18;;;;;;;15.36;87.62;95269.00;5065001;28;20184;-78
2022/06/16 02:55:33;;;;;;;16.38;10.38;;;;;;;15.40;87.46;95270.94;5072861;28;20182;-78
2022/06/16 02:58:01;;;;;;;13.68;8.13;;;;;;;15.55;87.47;95296.25;5074291;28;20178;-78
2022/06/16 03:00:41;;;;;;;14.75;9.10;;;;;;;15.60;88.00;95294.53;5078328;28;20613;-78
2022/06/16 03:03:24;;;;;;;8.98;5.13;;;;;;;15.52;88.06;95291.38;5076702;28;20166;-78
2022/06/16 03:05:55;;;;;;;10.38;6.28;;;;;;;15.49;88.34;95277.53;5074661;28;20179;-78
2022/06/16 03:08:22;;;;;;;10.77;5.10;;;;;;;15.54;88.21;95276.06;5072493;28;20206;-79
2022/06/16 03:10:52;;;;;;;8.85;6.43;;;;;;;15.56;88.39;95276.66;5071769;28;20256;-79
2022/06/16 03:13:22;;;;;;;18.95;8.15;;;;;;;15.63;88.13;95291.41;5071540;28;20166;-79
2022/06/16 03:15:50;;;;;;;9.77;6.57;;;;;;;15.57;88.53;95294.19;5071524;28;20205;-78
2022/06/16 03:18:16;;;;;;;8.43;6.15;;;;;;;15.69;88.98;95292.31;5069445;28;20174;-79
2022/06/16 03:20:42;;;;;;;11.90;6.13;;;;;;;15.52;88.50;95239.09;5071655;28;20258;-78
2022/06/16 03:23:07;;;;;;;9.18;5.20;;;;;;;15.91;87.64;95292.56;5071316;28;20205;-78
2022/06/16 03:25:34;;;;;;;16.35;6.88;;;;;;;15.92;88.12;95294.97;5073086;28;20710;-79
2022/06/16 03:27:59;;;;;;;9.77;7.40;;;;;;;15.99;87.89;95297.50;5071405;28;20201;-79
2022/06/16 03:30:25;;;;;;;20.98;13.00;;;;;;;16.05;88.11;95300.03;5071268;28;20638;-79
2022/06/16 03:32:50;;;;;;;20.13;12.52;;;;;;;16.00;87.56;95276.00;5071674;28;20254;-78
2022/06/16 03:35:16;;;;;;;19.77;8.65;;;;;;;16.05;87.68;95301.88;5074005;28;20167;-78
2022/06/16 03:37:41;;;;;;;10.05;6.88;;;;;;;15.69;88.32;95266.59;5075442;28;20174;-78
2022/06/16 03:40:08;;;;;;;22.65;7.93;;;;;;;15.81;88.68;95278.03;5075544;28;20646;-78
2022/06/16 03:42:34;;;;;;;15.38;9.95;;;;;;;15.94;88.78;95290.22;5075351;28;20178;-79
2022/06/16 03:44:59;;;;;;;11.10;8.23;;;;;;;16.03;88.39;95288.81;5057168;28;20567;-79
2022/06/16 03:47:25;;;;;;;13.27;8.60;;;;;;;16.12;88.31;95287.44;5075221;28;20174;-79
2022/06/16 03:49:50;;;;;;;12.10;7.32;;;;;;;16.21;87.91;95283.38;5075153;28;20177;-79
2022/06/16 03:52:16;;;;;;;13.23;6.50;;;;;;;16.38;87.83;95293.25;5075037;28;20257;-79
2022/06/16 03:54:41;;;;;;;11.85;7.38;;;;;;;16.51;87.28;95285.81;5074820;28;20201;-78
2022/06/16 03:57:07;;;;;;;14.73;6.53;;;;;;;16.66;86.20;95290.66;5074063;28;20176;-78
2022/06/16 03:59:33;;;;;;;17.20;6.70;;;;;;;16.65;85.93;95265.09;5074100;28;20178;-78
2022/06/16 04:01:58;;;;;;;12.40;6.43;;;;;;;17.02;84.91;95296.59;5074827;28;20174;-78
2022/06/16 04:04:24;;;;;;;18.75;5.78;;;;;;;17.18;84.43;95298.47;5074582;28;20209;-78
2022/06/16 04:06:51;;;;;;;13.52;6.28;;;;;;;17.37;83.76;95294.53;5074839;28;20171;-78
2022/06/16 04:09:17;;;;;;;9.38;6.78;;;;;;;17.50;82.51;95288.88;5075185;28;20273;-78
2022/06/16 04:11:43;;;;;;;13.88;5.95;;;;;;;17.71;81.37;95300.69;5074781;28;20301;-78
2022/06/16 04:14:13;;;;;;;12.45;6.32;;;;;;;17.86;80.36;95298.22;5074759;28;20166;-78
2022/06/16 04:16:48;;;;;;;19.75;6.28;;;;;;;18.03;80.13;95296.34;5074811;28;20183;-80
2022/06/16 04:19:17;;;;;;;19.50;7.47;;;;;;;18.20;79.44;95304.28;5074655;28;20248;-81
2022/06/16 04:21:44;;;;;;;12.02;5.95;;;;;;;18.24;79.22;95284.09;5056440;28;20163;-81
2022/06/16 04:24:10;;;;;;;13.50;6.47;;;;;;;18.56;77.50;95297.53;5074636;28;20194;-81
2022/06/16 04:26:37;;;;;;;13.38;5.70;;;;;;;18.74;76.68;95299.91;5075486;28;20167;-81
2022/06/16 04:29:08;;;;;;;8.38;5.57;;;;;;;18.94;76.07;95309.97;5063909;28;20627;-81
2022/06/16 04:31:34;;;;;;;7.40;4.75;;;;;;;19.09;75.88;95307.47;5056375;28;20186;-83
2022/06/16 04:33:59;;;;;;;6.03;5.05;;;;;;;18.74;75.76;95238.56;5074352;28;20249;-83
2022/06/16 04:36:26;;;;;;;11.10;6.15;;;;;;;18.91;75.00;95235.78;5077068;28;20315;-81
2022/06/16 04:38:53;;;;;;;8.75;6.40;;;;;;;19.16;74.22;95260.00;5070848;28;20955;-82
2022/06/16 04:41:18;;;;;;;12.55;7.28;;;;;;;19.62;72.71;95300.47;5045570;28;20569;-82
2022/06/16 04:43:44;;;;;;;13.75;5.53;;;;;;;19.55;72.80;95275.81;5045373;28;20191;-81
2022/06/16 04:46:13;;;;;;;8.43;6.00;;;;;;;19.76;72.05;95276.78;5065092;28;20243;-82
2022/06/16 04:48:39;;;;;;;13.90;5.00;;;;;;;19.72;71.18;95257.00;5068084;28;20560;-82
2022/06/16 04:51:05;;;;;;;10.88;5.68;;;;;;;20.08;70.42;95290.84;5062057;28;20178;-82
2022/06/16 04:53:32;;;;;;;9.77;6.28;;;;;;;20.15;70.52;95267.38;5072279;28;20182;-82
2022/06/16 04:55:59;;;;;;;9.95;5.88;;;;;;;20.21;68.70;95250.28;5063004;28;20570;-81
2022/06/16 04:58:26;;;;;;;11.13;5.90;;;;;;;20.63;68.19;95290.34;5064832;28;20940;-82
2022/06/16 05:00:53;;;;;;;6.57;5.68;;;;;;;20.99;69.20;95314.53;5043131;28;20245;-82
2022/06/16 05:03:21;;;;;;;12.75;5.82;;;;;;;20.83;69.07;95248.66;5067361;28;20206;-82
2022/06/16 05:05:48;;;;;;;8.15;5.75;;;;;;;21.52;67.61;95323.19;5046222;28;20264;-82
2022/06/16 05:08:14;;;;;;;10.13;5.50;;;;;;;21.32;65.50;95260.50;5073665;28;20274;-82
2022/06/16 05:10:40;;;;;;;9.80;5.93;;;;;;;21.96;65.97;95307.38;5073229;28;20705;-78
2022/06/16 05:13:05;;;;;;;9.98;6.97;;;;;;;22.38;64.00;95301.66;5073404;28;20244;-79
2022/06/16 05:15:31;;;;;;;10.82;6.72;;;;;;;22.63;61.69;95314.97;5074493;28;20163;-79
2022/06/16 05:17:56;;;;;;;15.00;7.07;;;;;;;22.59;61.26;95300.47;5073513;28;20171;-79
2022/06/16 05:20:22;;;;;;;12.63;6.88;;;;;;;22.92;60.83;95317.81;5073440;28;20170;-79
2022/06/16 05:22:48;;;;;;;17.65;6.53;;;;;;;23.25;60.11;95318.97;5073393;28;20170;-79
2022/06/16 05:25:14;;;;;;;16.33;5.57;;;;;;;23.58;60.14;95317.44;5074989;28;20681;-79
2022/06/16 05:27:39;;;;;;;9.98;6.25;;;;;;;24.01;59.71;95318.41;5075301;28;20198;-79
2022/06/16 05:30:05;;;;;;;20.70;11.73;;;;;;;24.33;58.31;95315.94;5073318;28;20173;-79
2022/06/16 05:32:31;;;;;;;11.73;8.88;;;;;;;24.83;57.75;95317.22;5073741;28;20562;-77
2022/06/16 05:34:56;;;;;;;8.45;6.50;;;;;;;25.32;55.61;95310.69;5073114;28;20167;-78
2022/06/16 05:37:22;;;;;;;8.60;6.13;;;;;;;25.60;54.17;95311.59;5072948;28;20193;-79
2022/06/16 05:39:49;;;;;;;11.85;7.60;;;;;;;25.96;53.69;95314.53;5055826;28;20249;-77
2022/06/16 05:42:15;;;;;;;10.45;6.90;;;;;;;26.28;53.45;95319.13;5073032;28;20178;-78
2022/06/16 05:44:41;;;;;;;15.75;7.15;;;;;;;26.32;52.17;95319.31;5073995;28;20202;-80
2022/06/16 05:47:07;;;;;;;19.98;7.35;;;;;;;26.39;52.04;95315.13;5073459;28;20657;-80
2022/06/16 05:49:33;;;;;;;13.20;7.20;;;;;;;26.59;51.29;95328.25;5065279;28;20185;-78
2022/06/16 05:52:00;;;;;;;8.90;6.13;;;;;;;26.53;52.19;95313.25;5073264;28;20170;-78
2022/06/16 05:54:25;;;;;;;10.35;7.03;;;;;;;26.57;52.38;95314.22;5072878;28;20171;-78
2022/06/16 05:56:51;;;;;;;11.50;6.78;;;;;;;26.52;52.46;95321.63;5072712;28;20182;-78
2022/06/16 05:59:16;;;;;;;11.60;7.80;;;;;;;26.42;54.04;95314.53;5055224;28;20171;-78
2022/06/16 06:01:42;;;;;;;20.83;8.15;;;;;;;26.09;51.41;95297.56;5073138;28;20227;-79
2022/06/16 06:04:07;;;;;;;20.52;9.10;;;;;;;25.76;53.01;95320.28;5072361;28;20285;-78
2022/06/16 06:06:33;;;;;;;13.52;8.23;;;;;;;25.60;53.47;95310.84;5053642;28;20198;-78
2022/06/16 06:17:16;;;;;;;12.23;8.27;;;;;;;25.53;56.80;95306.56;5071822;28;20189;-78
2022/06/16 06:19:42;;;;;;;15.55;8.35;;;;;;;25.95;56.10;95310.22;5072335;28;20182;-78
2022/06/16 06:22:14;;;;;;;12.85;8.02;;;;;;;26.33;54.88;95315.53;5072311;28;20580;-78
2022/06/16 06:24:40;;;;;;;12.50;8.27;;;;;;;26.58;54.83;95315.03;5072488;28;20186;-78
2022/06/16 06:27:22;;;;;;;21.17;9.38;;;;;;;26.56;52.71;95299.13;5072088;28;20633;-78
2022/06/16 06:29:49;;;;;;;14.25;7.68;;;;;;;26.84;52.72;95316.13;5072517;28;20177;-78
2022/06/16 06:32:17;;;;;;;17.70;10.10;;;;;;;26.85;52.27;95319.63;5072224;28;20554;-78
2022/06/16 06:34:43;;;;;;;16.55;8.77;;;;;;;26.63;52.57;95313.06;5072258;28;20558;-79
2022/06/16 06:37:12;;;;;;;19.45;9.20;;;;;;;26.58;54.13;95321.25;5072796;28;20166;-78
2022/06/16 06:39:38;;;;;;;14.82;10.63;;;;;;;26.75;53.10;95322.53;5072793;28;20213;-78
2022/06/16 06:42:03;;;;;;;16.42;9.98;;;;;;;26.70;52.51;95303.72;5073072;28;20201;-78
2022/06/16 06:44:29;;;;;;;14.90;10.10;;;;;;;26.83;53.54;95300.22;5072584;28;20719;-78
2022/06/16 06:46:55;;;;;;;14.02;9.40;;;;;;;27.06;54.50;95322.75;5072354;28;20175;-78
2022/06/16 06:49:21;;;;;;;16.10;9.20;;;;;;;27.22;53.51;95316.69;5054662;28;20174;-79
2022/06/16 06:51:47;;;;;;;12.90;8.90;;;;;;;27.32;53.20;95318.38;5072420;28;20189;-78
2022/06/16 06:54:12;;;;;;;12.80;9.25;;;;;;;27.10;52.14;95281.28;5072346;28;20162;-78
2022/06/16 06:56:38;;;;;;;21.13;9.95;;;;;;;27.39;51.82;95313.34;5072417;28;20173;-78
2022/06/16 06:59:06;;;;;;;19.67;9.13;;;;;;;27.70;53.07;95316.16;5072090;28;20170;-79
2022/06/16 07:01:33;;;;;;;15.57;10.23;;;;;;;27.65;50.70;95289.22;5072104;28;20645;-79
2022/06/16 07:03:58;;;;;;;21.90;10.85;;;;;;;27.90;52.50;95309.44;5072291;28;20218;-79
2022/06/16 07:06:25;;;;;;;18.58;12.02;;;;;;;27.89;49.64;95316.78;5071839;28;20202;-80
2022/06/16 07:08:50;;;;;;;17.48;10.98;;;;;;;27.60;50.10;95298.25;5071688;28;20532;-80
2022/06/16 07:11:16;;;;;;;17.25;10.70;;;;;;;27.71;50.95;95309.63;5071697;28;20170;-80
2022/06/16 07:13:41;;;;;;;17.63;11.18;;;;;;;27.39;51.54;95306.03;5071548;28;20181;-79
2022/06/16 07:16:08;;;;;;;16.65;11.40;;;;;;;26.99;52.83;95277.19;5072139;28;20170;-79
2022/06/16 07:18:34;;;;;;;15.30;10.25;;;;;;;27.25;54.60;95301.75;5071734;28;20173;-79
2022/06/16 07:20:59;;;;;;;22.52;10.32;;;;;;;27.42;52.73;95289.16;5071590;28;20576;-79
2022/06/16 07:23:26;;;;;;;18.92;10.40;;;;;;;27.55;50.88;95284.06;5072034;28;20174;-79
2022/06/16 07:25:52;;;;;;;14.40;9.55;;;;;;;27.32;51.84;95302.16;5071501;28;20198;-79
2022/06/16 07:28:18;;;;;;;16.92;10.68;;;;;;;26.99;54.02;95275.28;5071490;28;20270;-81
2022/06/16 07:30:43;;;;;;;14.10;9.88;;;;;;;27.36;52.99;95298.53;5071960;28;20178;-79
2022/06/16 07:33:12;;;;;;;25.55;10.93;;;;;;;27.30;52.00;95297.03;5071660;28;20218;-80
2022/06/16 07:35:40;;;;;;;16.15;10.35;;;;;;;26.77;53.01;95283.31;5071675;28;20249;-79
2022/06/16 07:38:06;;;;;;;18.25;10.27;;;;;;;26.92;55.46;95293.81;5071589;28;20178;-80
2022/06/16 07:40:31;;;;;;;14.05;9.50;;;;;;;27.14;52.80;95293.09;5071606;28;20174;-80
2022/06/16 07:42:57;;;;;;;20.50;10.43;;;;;;;26.96;53.12;95264.28;5071855;28;20709;-79
2022/06/16 07:45:24;;;;;;;13.38;9.55;;;;;;;27.19;53.05;95287.56;5071718;28;20197;-79
2022/06/16 07:47:53;;;;;;;15.30;10.60;;;;;;;27.31;53.50;95285.13;5071468;28;20249;-79
2022/06/16 07:50:19;;;;;;;19.38;11.43;;;;;;;27.32;54.89;95288.63;5071563;28;20177;-78
2022/06/16 07:52:45;;;;;;;20.15;11.15;;;;;;;27.30;55.71;95250.28;5071645;28;20257;-79
2022/06/16 07:55:11;;;;;;;17.00;10.43;;;;;;;27.60;54.18;95297.44;5071723;28;20194;-80
2022/06/16 07:57:48;;;;;;;15.68;10.27;;;;;;;27.74;52.26;95290.88;5071452;28;20178;-79
2022/06/16 08:00:24;;;;;;;16.80;10.82;;;;;;;27.21;52.43;95293.47;5071829;28;20228;-79
2022/06/16 08:02:50;;;;;;;16.08;11.02;;;;;;;26.39;53.44;95281.91;5065221;28;20166;-79
2022/06/16 08:05:17;;;;;;;14.13;10.60;;;;;;;25.88;55.12;95299.81;5073717;28;20266;-79
2022/06/16 08:07:43;;;;;;;17.15;10.93;;;;;;;25.94;56.75;95281.66;5071001;28;20183;-78
2022/06/16 08:10:14;;;;;;;17.55;11.18;;;;;;;26.15;55.45;95296.38;5070378;28;20206;-80
2022/06/16 08:12:41;;;;;;;17.70;11.70;;;;;;;26.07;55.08;95301.66;5071599;28;20222;-79
2022/06/16 08:15:07;;;;;;;17.48;10.65;;;;;;;26.27;55.89;95291.31;5071616;28;20218;-79
2022/06/16 08:17:36;;;;;;;26.58;14.82;;;;;;;26.20;55.13;95287.41;5053224;28;20210;-79
2022/06/16 08:20:03;;;;;;;18.13;11.98;;;;;;;26.05;55.02;95293.06;5062501;28;20159;-79
2022/06/16 08:22:29;;;;;;;14.90;11.05;;;;;;;26.07;57.09;95302.47;5075090;28;20174;-79
2022/06/16 08:24:55;;;;;;;16.33;11.75;;;;;;;26.21;56.92;95295.16;5074684;28;20198;-79
2022/06/16 08:27:26;;;;;;;18.13;13.07;;;;;;;26.73;54.69;95313.91;5074586;28;20592;-79
2022/06/16 08:29:52;;;;;;;17.88;11.20;;;;;;;26.94;51.18;95307.03;5075000;28;20170;-80
2022/06/16 08:32:19;;;;;;;16.83;11.18;;;;;;;26.90;51.28;95300.59;5074661;28;20197;-79
2022/06/16 08:34:45;;;;;;;16.27;11.65;;;;;;;26.89;51.68;95280.91;5075028;28;20210;-79
2022/06/16 08:37:11;;;;;;;15.38;10.57;;;;;;;26.36;52.67;95293.34;5074115;28;20233;-79
2022/06/16 08:39:37;;;;;;;16.25;11.23;;;;;;;25.96;52.19;95289.44;5074582;28;20175;-80
2022/06/16 08:42:10;;;;;;;20.98;11.35;;;;;;;25.89;53.60;95303.31;5074457;28;20257;-80
2022/06/16 08:44:39;;;;;;;15.95;10.57;;;;;;;25.79;53.37;95300.78;5074612;28;20190;-80
2022/06/16 08:47:13;;;;;;;16.75;10.85;;;;;;;25.73;53.56;95291.97;5074760;28;20562;-80
2022/06/16 08:50:00;;;;;;;15.63;11.15;;;;;;;26.23;55.50;95286.78;5068729;28;20170;-80
2022/06/16 08:52:54;;;;;;;14.35;10.23;;;;;;;26.41;51.79;95293.22;5073823;28;20575;-79
2022/06/16 08:55:53;;;;;;;14.35;11.10;;;;;;;26.35;53.92;95297.94;5075071;28;20217;-80
2022/06/16 08:58:21;;;;;;;13.43;10.52;;;;;;;26.15;51.37;95288.28;5078910;28;20166;-80
2022/06/16 09:00:55;;;;;;;20.02;14.52;;;;;;;25.97;52.83;95282.94;5077566;28;20634;-79
2022/06/16 09:03:44;;;;;;;14.18;10.85;;;;;;;25.87;54.38;95287.41;5072935;28;20222;-79
2022/06/16 09:06:24;;;;;;;16.30;10.10;;;;;;;25.75;51.90;95297.09;5067518;28;20184;-79
2022/06/16 09:09:01;;;;;;;12.45;9.68;;;;;;;25.59;51.99;95288.44;5074305;28;20317;-79
2022/06/16 09:11:33;;;;;;;19.20;12.90;;;;;;;25.53;53.99;95279.59;5073823;28;20292;-80
2022/06/16 09:17:46;;;;;;;15.90;11.95;;;;;;;25.63;54.37;95284.06;5089976;28;20181;-79
2022/06/16 09:20:21;;;;;;;24.17;15.85;;;;;;;25.43;54.52;95260.06;5081688;28;20258;-79
2022/06/16 09:23:03;;;;;;;14.93;10.80;;;;;;;25.58;57.11;95272.53;5057293;28;20182;-79
2022/06/16 09:25:40;;;;;;;17.40;11.95;;;;;;;25.55;55.91;95276.59;5076909;28;20248;-78
2022/06/16 09:28:17;;;;;;;13.60;9.93;;;;;;;25.60;57.78;95268.44;5073085;28;20173;-77
2022/06/16 09:30:47;;;;;;;13.52;10.13;;;;;;;25.44;53.61;95258.97;5073257;28;20185;-79
2022/06/16 09:33:19;;;;;;;15.43;9.32;;;;;;;25.52;53.32;95266.41;5071356;28;20182;-79
2022/06/16 09:36:01;;;;;;;11.68;8.50;;;;;;;25.11;52.15;95264.34;5073023;28;20560;-78
2022/06/16 09:38:29;;;;;;;13.32;10.20;;;;;;;24.88;53.46;95259.81;5057836;28;20174;-79
2022/06/16 09:41:02;;;;;;;23.48;15.65;;;;;;;24.75;53.95;95257.81;5069087;28;20186;-79
2022/06/16 09:43:42;;;;;;;16.70;10.23;;;;;;;24.69;53.68;95256.28;5065167;28;20185;-79
2022/06/16 09:46:32;;;;;;;13.55;9.45;;;;;;;24.64;53.87;95249.09;5072392;28;20633;-79
2022/06/16 09:49:07;;;;;;;13.20;9.18;;;;;;;24.56;54.71;95254.31;5054910;28;20192;-80
2022/06/16 09:51:44;;;;;;;14.40;10.20;;;;;;;24.68;54.93;95250.09;5072440;28;20699;-79
2022/06/16 09:54:16;;;;;;;12.10;9.20;;;;;;;24.71;53.10;95246.84;5072128;28;20954;-78
2022/06/16 09:57:00;;;;;;;13.35;9.38;;;;;;;24.78;56.40;95244.56;5064884;28;20308;-79
2022/06/16 09:59:32;;;;;;;15.10;10.18;;;;;;;25.03;55.89;95243.44;5072304;28;20171;-79
2022/06/16 10:02:05;;;;;;;14.75;9.88;;;;;;;25.37;53.92;95258.56;5072890;28;20209;-79
2022/06/16 10:04:31;;;;;;;12.05;9.65;;;;;;;25.49;53.65;95245.44;5072369;28;20589;-76
2022/06/16 10:07:21;;;;;;;15.50;9.48;;;;;;;25.56;56.15;95246.66;5071388;28;20178;-77
2022/06/16 10:10:07;;;;;;;12.30;8.27;;;;;;;25.58;51.35;95246.38;5071469;28;20174;-79
2022/06/16 10:12:41;;;;;;;11.40;8.05;;;;;;;25.51;50.09;95251.34;5071573;28;20766;-83
2022/06/16 10:15:16;;;;;;;16.58;9.32;;;;;;;25.46;53.84;95233.34;5072122;28;20603;-81
2022/06/16 10:17:44;;;;;;;10.52;8.35;;;;;;;25.27;51.73;95212.88;5072294;28;20185;-82
2022/06/16 10:20:11;;;;;;;10.95;8.05;;;;;;;25.32;49.71;95226.31;5071368;28;20178;-83
2022/06/16 10:22:39;;;;;;;12.82;9.52;;;;;;;25.09;50.10;95211.81;5072420;28;20158;-84
2022/06/16 10:25:17;;;;;;;14.60;9.13;;;;;;;24.95;51.37;95197.50;5072686;28;20183;-83
2022/06/16 10:27:51;;;;;;;11.93;9.30;;;;;;;25.05;52.50;95227.00;5092665;28;20197;-83
2022/06/16 10:30:25;;;;;;;19.38;9.82;;;;;;;24.82;54.79;95223.25;5092387;28;20158;-81
2022/06/16 10:33:11;;;;;;;20.55;10.02;;;;;;;24.35;56.03;95167.63;5092419;28;20161;-85
2022/06/16 10:35:43;;;;;;;17.17;10.20;;;;;;;24.59;57.40;95197.97;5074153;28;20158;-82
2022/06/16 10:38:10;;;;;;;14.73;10.65;;;;;;;24.60;56.13;95182.63;5092351;28;20233;-84
2022/06/16 10:40:41;;;;;;;12.18;9.82;;;;;;;25.07;59.35;95212.13;5092711;28;20166;-84
2022/06/16 10:43:12;;;;;;;16.95;10.23;;;;;;;24.90;55.99;95160.66;5092318;28;20632;-84
2022/06/16 10:45:39;;;;;;;12.63;9.43;;;;;;;25.19;54.90;95171.25;5073533;28;20190;-84
2022/06/16 10:48:23;;;;;;;18.67;11.18;;;;;;;25.63;54.54;95210.44;5091927;28;20222;-84
2022/06/16 10:51:04;;;;;;;14.32;9.25;;;;;;;25.80;54.82;95213.34;5065478;28;20232;-84
2022/06/16 10:53:38;;;;;;;13.35;9.55;;;;;;;25.69;54.01;95174.97;5052028;28;20748;-83
2022/06/16 10:56:11;;;;;;;11.77;8.70;;;;;;;25.83;51.38;95180.41;5069692;28;20171;-84
2022/06/16 10:59:17;;;;;;;13.55;9.88;;;;;;;26.01;49.70;95209.19;5063065;28;20174;-84
2022/06/16 11:01:53;;;;;;;14.55;9.57;;;;;;;26.05;53.97;95204.78;5038483;28;20188;-84
2022/06/16 11:04:23;;;;;;;10.52;8.52;;;;;;;26.18;50.47;95200.50;5052001;28;20212;-84
2022/06/16 11:06:53;;;;;;;11.93;9.75;;;;;;;26.32;49.78;95200.50;5069969;28;20178;-84
2022/06/16 11:09:26;;;;;;;11.77;9.15;;;;;;;26.12;50.55;95159.28;5069697;28;20170;-83
2022/06/16 11:12:02;;;;;;;12.93;9.57;;;;;;;26.27;49.04;95196.84;5069981;28;20214;-83
2022/06/16 11:14:55;;;;;;;12.98;9.27;;;;;;;26.20;47.93;95203.72;5052032;28;20190;-83
2022/06/16 11:17:38;;;;;;;12.15;8.85;;;;;;;26.02;47.97;95199.22;5051487;28;20178;-83
2022/06/16 11:20:24;;;;;;;13.48;9.10;;;;;;;25.92;47.53;95195.59;5069739;28;20206;-83
2022/06/16 11:22:51;;;;;;;10.52;8.23;;;;;;;25.89;48.52;95198.09;5051346;28;20195;-83
2022/06/16 11:25:30;;;;;;;10.98;8.60;;;;;;;25.91;48.47;95195.88;5069738;28;20212;-83
2022/06/16 11:28:00;;;;;;;11.18;9.27;;;;;;;25.96;49.25;95190.38;5069628;28;20190;-84
2022/06/16 11:30:36;;;;;;;13.68;10.07;;;;;;;26.05;50.41;95187.78;5069783;28;20186;-84
2022/06/16 11:33:05;;;;;;;11.27;8.50;;;;;;;25.94;47.38;95173.72;5068930;28;20186;-83
2022/06/16 11:35:45;;;;;;;11.10;8.57;;;;;;;25.95;47.77;95185.31;5069348;28;20241;-84
2022/06/16 11:38:49;;;;;;;14.43;10.25;;;;;;;25.87;48.12;95190.28;5069402;28;20178;-84
2022/06/16 11:41:15;;;;;;;13.68;8.95;;;;;;;25.63;48.82;95160.00;5019158;28;20251;-84
2022/06/16 11:44:08;;;;;;;11.35;8.05;;;;;;;25.52;47.40;95145.06;5069241;28;20178;-85
2022/06/16 11:46:36;;;;;;;13.15;9.05;;;;;;;25.74;48.35;95187.59;5006146;28;20193;-84
2022/06/16 11:49:31;;;;;;;13.40;9.25;;;;;;;25.66;46.85;95180.97;5068997;28;20166;-84
2022/06/16 11:52:19;;;;;;;10.48;8.57;;;;;;;25.36;46.87;95146.41;5069185;28;20293;-83
2022/06/16 11:55:06;;;;;;;12.88;8.60;;;;;;;25.33;47.69;95161.31;5069065;28;20178;-84
2022/06/16 11:57:53;;;;;;;10.48;8.57;;;;;;;25.43;50.29;95179.19;5072810;28;20178;-84
2022/06/16 12:00:37;;;;;;;9.82;8.13;;;;;;;25.44;47.85;95176.19;5072972;28;20166;-83
2022/06/16 12:03:20;;;;;;;12.75;9.77;;;;;;;25.47;49.08;95175.63;5072557;28;20208;-84